Temp: 17.7°C   Baro: 1023.8mb
  Wind: 0.9mph   Dir: NNW (342°)
  Rain: 7.0mm (0.0mm/hr)
  Solar: 181W/m2  Hum: 67%

Historic data

Bath Spa Weather Station Historical Data
Daily Summary for August 07, 2022 Units:  Metric    English   Both
Daily Weekly Monthly Yearly Custom
  High: Low: Average:
Temperature: 26.2 °C 10.4 °C 18.8 °C
Dew Point: 15.4 °C 8.2 °C 12.1 °C
Humidity: 87% 42.8% 68%
Wind Speed: 11.6km/h 0km/h 3.2km/h
Wind Gust: 22.5km/h - -
Wind- - West
Pressure: 1028.7 hPa 1024.3 hPa -
Precipitation: 0 mm    
Historical Graphs
 
 
Tabular Data for August 07, 2022
Time Temperature Dew Point Pressure Wind Wind Speed Wind Gust Humidity Rainfall Rate (Hourly) solar
00:09 14.8 °C 11.6 °C 1028.3 hPa WNW 0.3 km/h 4.8 km/h 80.8% 0 mm 0 W/m2
00:14 14.7 °C 11.6 °C 1028.3 hPa WNW 1 km/h 3.2 km/h 81% 0 mm 0 W/m2
00:19 14.7 °C 11.5 °C 1028.7 hPa WNW 0.6 km/h 3.2 km/h 81.2% 0 mm 0 W/m2
00:24 14.6 °C 11.6 °C 1028.7 hPa WNW 0.6 km/h 3.2 km/h 82% 0 mm 0 W/m2
00:29 14.3 °C 11.4 °C 1028.7 hPa Calm   3.2 km/h 82% 0 mm 0 W/m2
00:34 14.3 °C 11.3 °C 1028.7 hPa Calm     82% 0 mm 0 W/m2
00:39 14.2 °C 11.3 °C 1028.7 hPa WNW 0.3 km/h 1.6 km/h 82.2% 0 mm 0 W/m2
00:44 14.2 °C 11.4 °C 1028.7 hPa WNW 0.3 km/h 3.2 km/h 83% 0 mm 0 W/m2
00:49 14.2 °C 11.4 °C 1028.7 hPa WNW 0.6 km/h 1.6 km/h 83% 0 mm 0 W/m2
00:54 14.1 °C 11.3 °C 1028.7 hPa WNW 0.3 km/h 3.2 km/h 83% 0 mm 0 W/m2
00:59 14.1 °C 11.3 °C 1028.7 hPa Calm   3.2 km/h 83% 0 mm 0 W/m2
01:04 13.9 °C 11.1 °C 1028.7 hPa WNW 0.3 km/h 3.2 km/h 83% 0 mm 0 W/m2
01:09 13.9 °C 11.1 °C 1028.7 hPa Calm     83% 0 mm 0 W/m2
01:14 13.8 °C 11 °C 1028.3 hPa Calm     83% 0 mm 0 W/m2
01:19 13.8 °C 11.1 °C 1028.3 hPa WNW 1.1 km/h 3.2 km/h 84% 0 mm 0 W/m2
01:24 13.7 °C 11 °C 1028.3 hPa WNW 1.1 km/h 3.2 km/h 84% 0 mm 0 W/m2
01:29 13.6 °C 10.9 °C 1028.3 hPa WNW 0.3 km/h 3.2 km/h 84% 0 mm 0 W/m2
01:34 13.6 °C 10.9 °C 1028.3 hPa WNW 0.8 km/h 3.2 km/h 84% 0 mm 0 W/m2
01:39 13.6 °C 10.9 °C 1028.3 hPa WNW 1.4 km/h 3.2 km/h 84% 0 mm 0 W/m2
01:44 13.5 °C 10.8 °C 1028.3 hPa WNW 0.6 km/h 1.6 km/h 84% 0 mm 0 W/m2
01:49 13.4 °C 10.8 °C 1028.3 hPa WNW 0.8 km/h 6.4 km/h 84% 0 mm 0 W/m2
01:54 13.3 °C 10.8 °C 1028.3 hPa Calm   1.6 km/h 84% 0 mm 0 W/m2
01:59 13.3 °C 10.7 °C 1028.3 hPa WNW 0.6 km/h 3.2 km/h 84% 0 mm 0 W/m2
02:04 13.3 °C 10.7 °C 1028.3 hPa WNW 0.6 km/h 3.2 km/h 84% 0 mm 0 W/m2
02:08 13.2 °C 10.7 °C 1028.3 hPa Calm   3.2 km/h 84% 0 mm 0 W/m2
02:14 13.2 °C 10.6 °C 1028.3 hPa WNW 0.3 km/h 1.6 km/h 84% 0 mm 0 W/m2
02:19 13.2 °C 10.6 °C 1028.3 hPa WNW 0.3 km/h 1.6 km/h 84% 0 mm 0 W/m2
02:24 13.2 °C 10.6 °C 1028.3 hPa WNW 0.6 km/h 3.2 km/h 84% 0 mm 0 W/m2
02:29 13.1 °C 10.5 °C 1028.3 hPa WNW 0.6 km/h 1.6 km/h 84% 0 mm 0 W/m2
02:34 13.1 °C 10.3 °C 1028 hPa WNW 1.3 km/h 3.2 km/h 83.2% 0 mm 0 W/m2
02:39 12.9 °C 10.2 °C 1028.3 hPa WNW 1.3 km/h 3.2 km/h 83% 0 mm 0 W/m2
02:44 12.8 °C 10.2 °C 1028.3 hPa WNW 1.3 km/h 3.2 km/h 83.6% 0 mm 0 W/m2
02:49 12.7 °C 10.1 °C 1028.3 hPa WNW 0.8 km/h 3.2 km/h 84% 0 mm 0 W/m2
02:54 12.7 °C 10.1 °C 1028.3 hPa WNW 0.3 km/h 3.2 km/h 84% 0 mm 0 W/m2
02:59 12.6 °C 10 °C 1028.3 hPa WNW 0.3 km/h 3.2 km/h 84% 0 mm 0 W/m2
03:04 12.5 °C 9.9 °C 1028.3 hPa Calm     84% 0 mm 0 W/m2
03:09 12.4 °C 9.8 °C 1028.3 hPa Calm     84% 0 mm 0 W/m2
03:14 12.4 °C 9.8 °C 1028.3 hPa Calm     84% 0 mm 0 W/m2
03:19 12.3 °C 9.7 °C 1028.3 hPa WNW 0.6 km/h 3.2 km/h 84% 0 mm 0 W/m2
03:24 12.2 °C 9.6 °C 1028.3 hPa Calm     84% 0 mm 0 W/m2
03:29 12.2 °C 9.6 °C 1028.3 hPa Calm     84% 0 mm 0 W/m2
03:34 12.1 °C 9.5 °C 1028.3 hPa Calm     84% 0 mm 0 W/m2
03:39 12.1 °C 9.4 °C 1028.3 hPa WNW 0.3 km/h 1.6 km/h 84% 0 mm 0 W/m2
03:44 11.9 °C 9.4 °C 1028.3 hPa Calm     84.6% 0 mm 0 W/m2
03:49 11.9 °C 9.4 °C 1028.3 hPa Calm     84.8% 0 mm 0 W/m2
03:54 11.9 °C 9.3 °C 1028.3 hPa Calm     84.2% 0 mm 0 W/m2
03:59 11.8 °C 9.4 °C 1028.3 hPa Calm     85% 0 mm 0 W/m2
04:03 11.8 °C 9.4 °C 1028.3 hPa Calm     85% 0 mm 0 W/m2
04:09 11.7 °C 9.3 °C 1028.3 hPa Calm     85% 0 mm 0 W/m2
04:14 11.7 °C 9.3 °C 1028.3 hPa Calm     85% 0 mm 0 W/m2
04:19 11.7 °C 9.3 °C 1028.3 hPa Calm     85% 0 mm 0 W/m2
04:24 11.7 °C 9.3 °C 1028 hPa Calm     85% 0 mm 0 W/m2
04:29 11.6 °C 9.2 °C 1028 hPa Calm     85% 0 mm 0 W/m2
04:34 11.6 °C 9.2 °C 1028 hPa Calm     85% 0 mm 0 W/m2
04:39 11.5 °C 9.1 °C 1028 hPa Calm     85% 0 mm 0 W/m2
04:44 11.4 °C 9 °C 1028 hPa Calm     85% 0 mm 0 W/m2
04:49 11.4 °C 9 °C 1028 hPa Calm     85% 0 mm 0 W/m2
04:54 11.3 °C 8.9 °C 1028 hPa Calm     85% 0 mm 0 W/m2
04:59 11.3 °C 8.8 °C 1028 hPa Calm     85% 0 mm 0 W/m2
05:04 11.2 °C 8.7 °C 1028 hPa Calm     85% 0 mm 0 W/m2
05:09 11.1 °C 8.7 °C 1028 hPa Calm     85.2% 0 mm 0 W/m2
05:14 10.9 °C 8.6 °C 1028 hPa Calm     86% 0 mm 0 W/m2
05:19 10.9 °C 8.6 °C 1028 hPa Calm     86% 0 mm 0 W/m2
05:24 10.8 °C 8.6 °C 1028 hPa Calm     86% 0 mm 0 W/m2
05:29 10.7 °C 8.5 °C 1028 hPa Calm     86% 0 mm 0 W/m2
05:34 10.7 °C 8.5 °C 1028 hPa Calm     86% 0 mm 0 W/m2
05:39 10.7 °C 8.5 °C 1028 hPa Calm     86% 0 mm 0 W/m2
05:44 10.7 °C 8.5 °C 1028 hPa Calm     86% 0 mm 5 W/m2
05:49 10.7 °C 8.4 °C 1028 hPa Calm     86% 0 mm 7 W/m2
05:54 10.6 °C 8.4 °C 1028 hPa Calm     86% 0 mm 9 W/m2
05:59 10.6 °C 8.4 °C 1028 hPa Calm     86% 0 mm 11 W/m2
06:04 10.5 °C 8.3 °C 1028 hPa Calm     86.4% 0 mm 12 W/m2
06:09 10.4 °C 8.2 °C 1028 hPa Calm     86% 0 mm 14 W/m2
06:14 10.4 °C 8.2 °C 1028 hPa Calm     86.2% 0 mm 16 W/m2
06:19 10.4 °C 8.3 °C 1028 hPa Calm     86.8% 0 mm 18 W/m2
06:24 10.4 °C 8.3 °C 1028 hPa Calm     87% 0 mm 19 W/m2
06:29 10.4 °C 8.3 °C 1028 hPa Calm     87% 0 mm 19 W/m2
06:34 10.4 °C 8.3 °C 1028 hPa Calm     87% 0 mm 21 W/m2
06:39 10.4 °C 8.3 °C 1028 hPa Calm     87% 0 mm 23 W/m2
06:44 10.6 °C 8.5 °C 1028 hPa Calm     87% 0 mm 23 W/m2
06:49 10.6 °C 8.5 °C 1028 hPa Calm     87% 0 mm 25 W/m2
06:53 10.7 °C 8.6 °C 1028.3 hPa Calm     87% 0 mm 26 W/m2
06:59 10.8 °C 8.7 °C 1028.3 hPa Calm     87% 0 mm 28 W/m2
07:04 10.8 °C 8.7 °C 1028.3 hPa Calm     87% 0 mm 35 W/m2
07:09 10.9 °C 8.8 °C 1028 hPa Calm     87% 0 mm 44 W/m2
07:14 11.1 °C 9 °C 1028.3 hPa Calm     87% 0 mm 56 W/m2
07:19 11.3 °C 9 °C 1028 hPa Calm     86.2% 0 mm 69 W/m2
07:24 11.4 °C 9.1 °C 1028 hPa Calm     86% 0 mm 84 W/m2
07:29 11.5 °C 9.2 °C 1028.3 hPa Calm     86% 0 mm 102 W/m2
07:34 11.7 °C 9.4 °C 1028.3 hPa Calm     86% 0 mm 118 W/m2
07:39 12 °C 9.7 °C 1028.3 hPa Calm     86% 0 mm 135 W/m2
07:44 12.2 °C 9.8 °C 1028.3 hPa Calm     85.2% 0 mm 153 W/m2
07:49 12.3 °C 9.9 °C 1028.3 hPa Calm     85% 0 mm 169 W/m2
07:54 12.7 °C 10.1 °C 1028.3 hPa Calm     84.2% 0 mm 181 W/m2
07:59 12.9 °C 10.2 °C 1028.3 hPa Calm     83.4% 0 mm 199 W/m2
08:04 13.2 °C 10.3 °C 1028.3 hPa Calm     82.6% 0 mm 214 W/m2
08:09 13.3 °C 10.3 °C 1028.3 hPa Calm     82% 0 mm 232 W/m2
08:14 13.7 °C 10.5 °C 1028.3 hPa Calm     81.2% 0 mm 241 W/m2
08:19 14 °C 10.7 °C 1028.3 hPa Calm     80.8% 0 mm 264 W/m2
08:24 14.4 °C 10.9 °C 1028.3 hPa Calm     79.4% 0 mm 279 W/m2
08:29 14.9 °C 11.1 °C 1028.3 hPa Calm     77.4% 0 mm 297 W/m2
08:34 15.2 °C 10.8 °C 1028.3 hPa WNW 0.3 km/h 1.6 km/h 75.2% 0 mm 313 W/m2
08:39 15.5 °C 11 °C 1028.3 hPa WNW 0.3 km/h 3.2 km/h 74.4% 0 mm 327 W/m2
08:44 15.9 °C 11.2 °C 1028.3 hPa WNW 1.3 km/h 3.2 km/h 73.4% 0 mm 343 W/m2
08:49 16.2 °C 11.2 °C 1028.3 hPa WNW 0.6 km/h 3.2 km/h 72.2% 0 mm 359 W/m2
08:54 16.3 °C 11.2 °C 1028.3 hPa WNW 0.3 km/h 3.2 km/h 72% 0 mm 373 W/m2
08:59 16.7 °C 11.3 °C 1028.3 hPa WNW 1.6 km/h 3.2 km/h 71% 0 mm 387 W/m2
09:04 17 °C 11.6 °C 1028.3 hPa WNW 1.1 km/h 3.2 km/h 70.6% 0 mm 401 W/m2
09:09 17.4 °C 11.8 °C 1028.3 hPa SSW 5.1 km/h 9.7 km/h 69.4% 0 mm 418 W/m2
09:14 17.8 °C 11.8 °C 1028.3 hPa SSE 2.6 km/h 6.4 km/h 68.2% 0 mm 431 W/m2
09:19 18.2 °C 12.1 °C 1028.3 hPa SSE 2.1 km/h 4.8 km/h 67.4% 0 mm 441 W/m2
09:24 18.5 °C 12.2 °C 1028.3 hPa SSE 1.4 km/h 4.8 km/h 66.6% 0 mm 454 W/m2
09:29 18.8 °C 12.6 °C 1028.3 hPa SSE 3.9 km/h 8 km/h 67.4% 0 mm 466 W/m2
09:34 19.1 °C 12.8 °C 1028.3 hPa ENE 3.2 km/h 8 km/h 67% 0 mm 476 W/m2
09:39 19.2 °C 12.8 °C 1028.3 hPa SE 4.5 km/h 8 km/h 66.6% 0 mm 489 W/m2
09:43 19.2 °C 12.8 °C 1028.3 hPa ESE 2.7 km/h 8 km/h 66.5% 0 mm 499 W/m2
09:49 19.5 °C 12.8 °C 1028 hPa SE 3.1 km/h 8 km/h 65.2% 0 mm 510 W/m2
09:54 19.7 °C 12.7 °C 1028 hPa SE 4 km/h 8 km/h 64% 0 mm 522 W/m2
09:59 19.7 °C 12.6 °C 1028 hPa SSE 3.4 km/h 9.7 km/h 63.4% 0 mm 534 W/m2
10:04 19.5 °C 12.4 °C 1028 hPa SSE 5.8 km/h 9.7 km/h 63.6% 0 mm 545 W/m2
10:09 19.6 °C 12.3 °C 1028 hPa SSE 5 km/h 11.3 km/h 63% 0 mm 557 W/m2
10:14 19.8 °C 12.4 °C 1028 hPa SE 4.5 km/h 9.7 km/h 62.2% 0 mm 568 W/m2
10:19 20.1 °C 12.3 °C 1027.7 hPa SE 2.6 km/h 8 km/h 61% 0 mm 578 W/m2
10:24 20 °C 12.2 °C 1027.7 hPa SE 4 km/h 8 km/h 61% 0 mm 589 W/m2
10:29 19.8 °C 12.3 °C 1027.7 hPa SSE 1.9 km/h 6.4 km/h 61.6% 0 mm 599 W/m2
10:34 20.3 °C 12.5 °C 1027.7 hPa South 5.5 km/h 9.7 km/h 60.8% 0 mm 608 W/m2
10:39 20.4 °C 12.3 °C 1027.7 hPa South 3.5 km/h 9.7 km/h 59.8% 0 mm 619 W/m2
10:44 20.4 °C 12.4 °C 1027.7 hPa South 4.5 km/h 9.7 km/h 60.2% 0 mm 628 W/m2
10:49 20.5 °C 12.7 °C 1027.7 hPa South 2.4 km/h 6.4 km/h 61% 0 mm 635 W/m2
10:54 20.8 °C 12.7 °C 1027.7 hPa SSW 2.6 km/h 6.4 km/h 60% 0 mm 645 W/m2
10:59 21 °C 12.7 °C 1027.7 hPa SSW 5.8 km/h 9.7 km/h 59% 0 mm 654 W/m2
11:04 20.8 °C 12.6 °C 1027.3 hPa SW 3.4 km/h 9.7 km/h 59.2% 0 mm 661 W/m2
11:09 21.3 °C 12.9 °C 1027.3 hPa South 3.9 km/h 8 km/h 59% 0 mm 668 W/m2
11:14 21.8 °C 13.1 °C 1027.3 hPa South 4 km/h 8 km/h 57.6% 0 mm 679 W/m2
11:19 21.7 °C 13 °C 1027.3 hPa SSW 3.4 km/h 9.7 km/h 57.8% 0 mm 686 W/m2
11:24 21.6 °C 13 °C 1027.3 hPa WNW 4.7 km/h 11.3 km/h 58% 0 mm 693 W/m2
11:29 21.5 °C 12.9 °C 1027.3 hPa WNW 3.9 km/h 8 km/h 58.2% 0 mm 700 W/m2
11:34 21.6 °C 13 °C 1027.3 hPa West 2.7 km/h 8 km/h 58% 0 mm 705 W/m2
11:39 21.9 °C 13.2 °C 1027.3 hPa NW 6 km/h 9.7 km/h 57.4% 0 mm 714 W/m2
11:44 22.2 °C 13.2 °C 1027.3 hPa NW 3.4 km/h 11.3 km/h 56.6% 0 mm 722 W/m2
11:49 22.3 °C 13 °C 1027.3 hPa NW 5.1 km/h 11.3 km/h 55.8% 0 mm 728 W/m2
11:54 22.1 °C 12.8 °C 1027.3 hPa West 5.1 km/h 9.7 km/h 55.8% 0 mm 735 W/m2
11:59 22.3 °C 12.7 °C 1027.3 hPa WSW 5 km/h 11.3 km/h 54.6% 0 mm 744 W/m2
12:03 22.1 °C 12.6 °C 1027.3 hPa SW 2.7 km/h 11.3 km/h 55.3% 0 mm 749 W/m2
12:09 22.1 °C 12.8 °C 1027 hPa SW 2.3 km/h 6.4 km/h 56% 0 mm 758 W/m2
12:14 22.7 °C 13.1 °C 1027 hPa SW 1.6 km/h 4.8 km/h 54.6% 0 mm 763 W/m2
12:19 23 °C 13.1 °C 1027 hPa SW 3.9 km/h 8 km/h 53.4% 0 mm 761 W/m2
12:24 23.2 °C 13.1 °C 1027 hPa WNW 3.2 km/h 9.7 km/h 53.2% 0 mm 763 W/m2
12:29 23.1 °C 13.1 °C 1027 hPa WNW 8.9 km/h 14.5 km/h 53.4% 0 mm 763 W/m2
12:34 22.7 °C 12.7 °C 1027 hPa WNW 5 km/h 11.3 km/h 53.4% 0 mm 777 W/m2
12:39 22.7 °C 12.3 °C 1026.6 hPa WNW 8.4 km/h 14.5 km/h 52.2% 0 mm 775 W/m2
12:44 22.8 °C 12.1 °C 1026.6 hPa West 8.4 km/h 12.9 km/h 51% 0 mm 780 W/m2
12:49 22.9 °C 12.2 °C 1026.6 hPa West 2.7 km/h 9.7 km/h 50.8% 0 mm 788 W/m2
12:54 23.1 °C 12.3 °C 1026.6 hPa SW 6.4 km/h 14.5 km/h 50.8% 0 mm 789 W/m2
12:59 23.5 °C 12.6 °C 1026.6 hPa WSW 1.9 km/h 6.4 km/h 50.4% 0 mm 789 W/m2
13:04 24 °C 12.8 °C 1026.6 hPa NW 5.6 km/h 12.9 km/h 49.8% 0 mm 793 W/m2
13:09 23.9 °C 12.4 °C 1026.6 hPa NNW 6.1 km/h 12.9 km/h 48.4% 0 mm 761 W/m2
13:14 23.8 °C 12.2 °C 1026.6 hPa NNE 6.4 km/h 14.5 km/h 48.3% 0 mm 788 W/m2
13:19 24.2 °C 12.2 °C 1026.6 hPa NNE 5.6 km/h 16.1 km/h 47% 0 mm 796 W/m2
13:24 23.9 °C 12.2 °C 1026.6 hPa WNW 7.1 km/h 16.1 km/h 47.8% 0 mm 795 W/m2
13:29 23.8 °C 12.1 °C 1026.3 hPa NNW 9 km/h 19.3 km/h 48% 0 mm 796 W/m2
13:34 23.5 °C 11.8 °C 1026.6 hPa NW 5.5 km/h 11.3 km/h 48% 0 mm 793 W/m2
13:39 23.7 °C 11.9 °C 1026.3 hPa WNW 2.1 km/h 8 km/h 47.8% 0 mm 791 W/m2
13:44 23.9 °C 12.1 °C 1026.3 hPa West 5.1 km/h 11.3 km/h 47.6% 0 mm 791 W/m2
13:49 24.3 °C 12.1 °C 1026.3 hPa WNW 7.4 km/h 16.1 km/h 46.4% 0 mm 788 W/m2
13:54 24.1 °C 11.8 °C 1026.3 hPa NW 9.2 km/h 14.5 km/h 46% 0 mm 786 W/m2
13:59 24 °C 11.7 °C 1026.3 hPa NW 7.7 km/h 14.5 km/h 46% 0 mm 788 W/m2
14:04 24.2 °C 11.7 °C 1026.3 hPa WSW 7.1 km/h 11.3 km/h 45.6% 0 mm 784 W/m2
14:09 24.5 °C 12 °C 1026 hPa WNW 5.8 km/h 22.5 km/h 45.6% 0 mm 775 W/m2
14:14 24.6 °C 12.3 °C 1026 hPa West 6.6 km/h 14.5 km/h 46.2% 0 mm 772 W/m2
14:19 24.7 °C 12.6 °C 1026 hPa WNW 6.8 km/h 11.3 km/h 46.8% 0 mm 772 W/m2
14:24 24.6 °C 12.4 °C 1026 hPa West 8.4 km/h 16.1 km/h 46.8% 0 mm 766 W/m2
14:29 24.4 °C 12.7 °C 1026 hPa West 5 km/h 12.9 km/h 47.8% 0 mm 761 W/m2
14:34 24.8 °C 12.9 °C 1026 hPa WNW 5.1 km/h 9.7 km/h 47.8% 0 mm 758 W/m2
14:39 25 °C 13.1 °C 1026 hPa WNW 4.7 km/h 17.7 km/h 47.6% 0 mm 752 W/m2
14:44 24.8 °C 13.1 °C 1026 hPa NNW 10 km/h 17.7 km/h 48% 0 mm 749 W/m2
14:49 24.6 °C 12.9 °C 1025.6 hPa WNW 7.6 km/h 14.5 km/h 48.2% 0 mm 744 W/m2
14:54 24.8 °C 13 °C 1025.6 hPa WNW 10 km/h 17.7 km/h 48% 0 mm 742 W/m2
14:59 24.8 °C 12.9 °C 1025.6 hPa NW 5.6 km/h 14.5 km/h 47.6% 0 mm 735 W/m2
15:04 25.1 °C 12.7 °C 1025.6 hPa NW 6.4 km/h 12.9 km/h 46% 0 mm 728 W/m2
15:09 24.8 °C 12.4 °C 1025.6 hPa WNW 7.1 km/h 14.5 km/h 45.8% 0 mm 724 W/m2
15:14 25 °C 12.4 °C 1025.6 hPa West 6.6 km/h 14.5 km/h 45.4% 0 mm 721 W/m2
15:19 25.1 °C 12.2 °C 1025.6 hPa WNW 6.4 km/h 12.9 km/h 44.8% 0 mm 717 W/m2
15:24 25.1 °C 12.2 °C 1025.6 hPa West 8.4 km/h 17.7 km/h 44.6% 0 mm 710 W/m2
15:29 25.1 °C 11.9 °C 1025.6 hPa West 11.6 km/h 20.9 km/h 43.8% 0 mm 696 W/m2
15:34 24.8 °C 11.7 °C 1025.6 hPa NW 11.6 km/h 20.9 km/h 44% 0 mm 684 W/m2
15:39 24.6 °C 11.6 °C 1025.6 hPa NNW 5.3 km/h 19.3 km/h 44.2% 0 mm 682 W/m2
15:44 25 °C 11.8 °C 1025.6 hPa NW 7.9 km/h 14.5 km/h 43.8% 0 mm 675 W/m2
15:49 25.2 °C 11.7 °C 1025.6 hPa WSW 8 km/h 12.9 km/h 42.8% 0 mm 670 W/m2
15:54 25.3 °C 11.8 °C 1025.3 hPa NW 7.4 km/h 14.5 km/h 43% 0 mm 656 W/m2
15:59 25.3 °C 11.9 °C 1025.3 hPa WNW 7.2 km/h 12.9 km/h 43.3% 0 mm 652 W/m2
16:04 25.3 °C 12.4 °C 1025.3 hPa WNW 6.1 km/h 16.1 km/h 44.6% 0 mm 657 W/m2
16:09 25.3 °C 12.4 °C 1025.3 hPa West 6.8 km/h 14.5 km/h 44.8% 0 mm 635 W/m2
16:14 25.5 °C 12.7 °C 1025.3 hPa NNW 9 km/h 12.9 km/h 44.8% 0 mm 628 W/m2
16:19 25.4 °C 12.4 °C 1025.3 hPa WNW 7.1 km/h 14.5 km/h 44.6% 0 mm 619 W/m2
16:24 25.4 °C 12.8 °C 1024.9 hPa NW 6.1 km/h 11.3 km/h 45.4% 0 mm 613 W/m2
16:29 25.7 °C 13.1 °C 1024.9 hPa North 5.3 km/h 11.3 km/h 45.8% 0 mm 615 W/m2
16:34 26 °C 13.4 °C 1024.9 hPa NNW 6.4 km/h 16.1 km/h 45.8% 0 mm 589 W/m2
16:39 25.8 °C 13.4 °C 1024.9 hPa NW 3.9 km/h 12.9 km/h 46.6% 0 mm 592 W/m2
16:44 25.6 °C 13.5 °C 1024.9 hPa WNW 7.7 km/h 14.5 km/h 47% 0 mm 571 W/m2
16:49 25.6 °C 13.4 °C 1024.9 hPa WNW 7.1 km/h 12.9 km/h 47% 0 mm 555 W/m2
16:54 25.8 °C 13.5 °C 1024.9 hPa NNW 6.8 km/h 14.5 km/h 46.8% 0 mm 554 W/m2
16:59 25.4 °C 13.1 °C 1024.9 hPa WNW 8 km/h 16.1 km/h 46.6% 0 mm 534 W/m2
17:04 25.3 °C 13.3 °C 1024.9 hPa NW 5.1 km/h 14.5 km/h 47.2% 0 mm 522 W/m2
17:09 25.7 °C 13.7 °C 1024.9 hPa NW 6 km/h 14.5 km/h 47.4% 0 mm 508 W/m2
17:14 25.8 °C 13.7 °C 1024.6 hPa WNW 4.8 km/h 14.5 km/h 47% 0 mm 499 W/m2
17:19 25.8 °C 13.6 °C 1024.6 hPa WNW 6.8 km/h 16.1 km/h 47% 0 mm 490 W/m2
17:24 25.5 °C 13.5 °C 1024.6 hPa WNW 7.1 km/h 16.1 km/h 47.2% 0 mm 478 W/m2
17:29 25.5 °C 13.6 °C 1024.6 hPa WNW 3.9 km/h 9.7 km/h 47.6% 0 mm 466 W/m2
17:34 25.7 °C 13.7 °C 1024.6 hPa NW 4.3 km/h 9.7 km/h 47.4% 0 mm 454 W/m2
17:39 25.7 °C 13.7 °C 1024.6 hPa NW 6.3 km/h 16.1 km/h 47.4% 0 mm 443 W/m2
17:44 25.8 °C 14.1 °C 1024.6 hPa North 6.9 km/h 12.9 km/h 48.2% 0 mm 434 W/m2
17:49 26.2 °C 14 °C 1024.6 hPa NW 8 km/h 16.1 km/h 47% 0 mm 415 W/m2
17:54 25.9 °C 13.8 °C 1024.6 hPa WNW 7.2 km/h 16.1 km/h 47.2% 0 mm 397 W/m2
17:59 25.6 °C 13.9 °C 1024.6 hPa WNW 10.6 km/h 16.1 km/h 48.4% 0 mm 357 W/m2
18:04 25.3 °C 13.7 °C 1024.6 hPa WNW 10 km/h 17.7 km/h 48.6% 0 mm 320 W/m2
18:09 25.3 °C 13.8 °C 1024.6 hPa WNW 6.4 km/h 14.5 km/h 49% 0 mm 353 W/m2
18:14 25.7 °C 14.1 °C 1024.6 hPa NNW 7.7 km/h 14.5 km/h 48.6% 0 mm 348 W/m2
18:19 25.7 °C 14 °C 1024.6 hPa NNW 6.6 km/h 14.5 km/h 48.4% 0 mm 343 W/m2
18:24 25.6 °C 14.1 °C 1024.6 hPa NNW 5.1 km/h 11.3 km/h 49% 0 mm 278 W/m2
18:29 25.8 °C 14.2 °C 1024.6 hPa North 5.6 km/h 12.9 km/h 48.8% 0 mm 257 W/m2
18:34 25.7 °C 14.1 °C 1024.6 hPa North 3.2 km/h 12.9 km/h 48.5% 0 mm 221 W/m2
18:39 25.7 °C 14.2 °C 1024.6 hPa NNW 3.4 km/h 6.4 km/h 49% 0 mm 220 W/m2
18:44 25.8 °C 14.3 °C 1024.6 hPa NNW 5.1 km/h 11.3 km/h 49% 0 mm 237 W/m2
18:49 25.6 °C 14.2 °C 1024.6 hPa NW 4 km/h 12.9 km/h 49.4% 0 mm 244 W/m2
18:54 25.4 °C 14.2 °C 1024.6 hPa WNW 7.2 km/h 12.9 km/h 50% 0 mm 229 W/m2
18:59 25.2 °C 14.2 °C 1024.6 hPa NW 5.8 km/h 12.9 km/h 50.4% 0 mm 220 W/m2
19:04 25.3 °C 14.2 °C 1024.3 hPa NW 4.5 km/h 8 km/h 50.2% 0 mm 200 W/m2
19:09 25.4 °C 14.3 °C 1024.6 hPa NNW 5.3 km/h 11.3 km/h 50.4% 0 mm 197 W/m2
19:14 25.3 °C 14.3 °C 1024.6 hPa NW 7.9 km/h 12.9 km/h 50.6% 0 mm 181 W/m2
19:19 25.1 °C 14.3 °C 1024.6 hPa NW 5.5 km/h 11.3 km/h 51% 0 mm 163 W/m2
19:24 25.1 °C 14.3 °C 1024.3 hPa WNW 5.6 km/h 11.3 km/h 51.3% 0 mm 148 W/m2
19:29 24.9 °C 14.6 °C 1024.3 hPa WNW 7.4 km/h 12.9 km/h 52.4% 0 mm 135 W/m2
19:34 24.7 °C 14.5 °C 1024.3 hPa WNW 7.4 km/h 14.5 km/h 53.2% 0 mm 118 W/m2
19:39 24.5 °C 14.6 °C 1024.6 hPa WNW 6 km/h 12.9 km/h 54% 0 mm 102 W/m2
19:44 24.4 °C 14.6 °C 1024.6 hPa NW 6.1 km/h 9.7 km/h 54.4% 0 mm 90 W/m2
19:49 24.3 °C 14.7 °C 1024.6 hPa NW 8.4 km/h 14.5 km/h 55% 0 mm 77 W/m2
19:54 24 °C 14.7 °C 1024.6 hPa WNW 8.9 km/h 14.5 km/h 56% 0 mm 65 W/m2
19:59 23.7 °C 14.6 °C 1024.6 hPa WNW 7.1 km/h 12.9 km/h 56.6% 0 mm 54 W/m2
20:04 23.6 °C 14.7 °C 1024.6 hPa WNW 8.5 km/h 12.9 km/h 57.4% 0 mm 42 W/m2
20:09 23.4 °C 14.7 °C 1024.6 hPa WNW 4.7 km/h 11.3 km/h 58% 0 mm 33 W/m2
20:14 23.3 °C 14.6 °C 1024.9 hPa WNW 4 km/h 8 km/h 58.2% 0 mm 25 W/m2
20:19 23.2 °C 14.7 °C 1024.9 hPa WNW 4.7 km/h 8 km/h 59% 0 mm 18 W/m2
20:24 22.8 °C 14.5 °C 1024.9 hPa WNW 5.8 km/h 9.7 km/h 59.2% 0 mm 14 W/m2
20:28 22.6 °C 14.3 °C 1024.9 hPa WNW 4.8 km/h 12.9 km/h 60% 0 mm 12 W/m2
20:34 22.3 °C 14.4 °C 1024.9 hPa WNW 3.4 km/h 8 km/h 61.2% 0 mm 11 W/m2
20:39 22.2 °C 14.6 °C 1024.9 hPa WNW 2.7 km/h 9.7 km/h 62.2% 0 mm 9 W/m2
20:44 22.1 °C 14.7 °C 1024.9 hPa WNW 1 km/h 4.8 km/h 63% 0 mm 7 W/m2
20:49 21.9 °C 14.8 °C 1024.9 hPa WNW 0.3 km/h 1.6 km/h 64% 0 mm 5 W/m2
20:54 21.8 °C 14.7 °C 1025.3 hPa WNW 1.1 km/h 3.2 km/h 64.4% 0 mm 0 W/m2
20:59 21.4 °C 14.7 °C 1025.3 hPa WNW 1.8 km/h 4.8 km/h 65.6% 0 mm 0 W/m2
21:04 21.2 °C 14.7 °C 1025.3 hPa WNW 3.5 km/h 4.8 km/h 66.8% 0 mm 0 W/m2
21:09 20.8 °C 14.8 °C 1025.3 hPa WNW 4.5 km/h 6.4 km/h 68.4% 0 mm 0 W/m2
21:14 20.7 °C 14.9 °C 1025.3 hPa WNW 6 km/h 8 km/h 70% 0 mm 0 W/m2
21:19 20.5 °C 15.2 °C 1025.3 hPa WNW 5.6 km/h 8 km/h 71.4% 0 mm 0 W/m2
21:24 20.3 °C 15.3 °C 1025.3 hPa WNW 4 km/h 8 km/h 73% 0 mm 0 W/m2
21:29 20.1 °C 15.3 °C 1025.3 hPa WNW 3.9 km/h 8 km/h 74.2% 0 mm 0 W/m2
21:34 19.9 °C 15.3 °C 1025.6 hPa WNW 5 km/h 8 km/h 75.2% 0 mm 0 W/m2
21:39 19.8 °C 15.4 °C 1025.6 hPa WNW 7.6 km/h 11.3 km/h 76% 0 mm 0 W/m2
21:44 19.6 °C 15.3 °C 1025.6 hPa WNW 7.2 km/h 11.3 km/h 76% 0 mm 0 W/m2
21:49 19.4 °C 15.2 °C 1025.6 hPa West 4 km/h 9.7 km/h 76.4% 0 mm 0 W/m2
21:54 19.3 °C 15.2 °C 1025.6 hPa West 4 km/h 6.4 km/h 77% 0 mm 0 W/m2
21:59 19.3 °C 15.2 °C 1025.6 hPa West 2.1 km/h 6.4 km/h 77% 0 mm 0 W/m2
22:04 19.2 °C 15.1 °C 1025.6 hPa West 3.2 km/h 6.4 km/h 77% 0 mm 0 W/m2
22:09 19.1 °C 14.9 °C 1025.6 hPa West 2.7 km/h 6.4 km/h 77% 0 mm 0 W/m2
22:14 18.9 °C 14.8 °C 1025.6 hPa West 1.8 km/h 3.2 km/h 77% 0 mm 0 W/m2
22:19 18.8 °C 14.7 °C 1025.6 hPa West 0.3 km/h 3.2 km/h 77% 0 mm 0 W/m2
22:24 18.7 °C 14.7 °C 1025.6 hPa West 1 km/h 4.8 km/h 77% 0 mm 0 W/m2
22:29 18.7 °C 14.6 °C 1025.6 hPa Calm     77% 0 mm 0 W/m2
22:34 18.6 °C 14.5 °C 1025.6 hPa West 0.6 km/h 3.2 km/h 77% 0 mm 0 W/m2
22:39 18.6 °C 14.4 °C 1025.6 hPa Calm   1.6 km/h 77% 0 mm 0 W/m2
22:44 18.4 °C 14.3 °C 1026 hPa Calm   1.6 km/h 77.2% 0 mm 0 W/m2
22:49 18.2 °C 14.3 °C 1025.6 hPa West 1.9 km/h 4.8 km/h 78% 0 mm 0 W/m2
22:54 18 °C 14.3 °C 1025.6 hPa West 2.1 km/h 4.8 km/h 79% 0 mm 0 W/m2
22:59 17.9 °C 14.4 °C 1026 hPa West 2.6 km/h 4.8 km/h 80% 0 mm 0 W/m2
23:04 17.8 °C 14.3 °C 1026 hPa West 3.2 km/h 4.8 km/h 80.3% 0 mm 0 W/m2
23:09 17.7 °C 14.3 °C 1026 hPa West 2.1 km/h 4.8 km/h 81% 0 mm 0 W/m2
23:14 17.5 °C 14.3 °C 1026 hPa West 1.3 km/h 3.2 km/h 81.6% 0 mm 0 W/m2
23:19 17.4 °C 14.3 °C 1026 hPa Calm     82% 0 mm 0 W/m2
23:24 17.3 °C 14.2 °C 1026 hPa West 0.3 km/h 1.6 km/h 82% 0 mm 0 W/m2
23:29 17.2 °C 14.2 °C 1026 hPa Calm   1.6 km/h 82.2% 0 mm 0 W/m2
23:34 17.2 °C 14.1 °C 1026 hPa West 0.3 km/h 1.6 km/h 82.2% 0 mm 0 W/m2
23:39 17.1 °C 14 °C 1026 hPa Calm   1.6 km/h 82% 0 mm 0 W/m2
23:44 17.1 °C 13.9 °C 1026 hPa Calm     82% 0 mm 0 W/m2
23:49 16.9 °C 13.8 °C 1026.3 hPa Calm     82% 0 mm 0 W/m2
23:54 16.8 °C 13.9 °C 1026.3 hPa West 0.6 km/h 1.6 km/h 82.8% 0 mm 0 W/m2
23:59 16.8 °C 13.9 °C 1026.3 hPa West 0.8 km/h 3.2 km/h 83% 0 mm 0 W/m2
Bath Spa Weather
Compliments of Weather Underground - 2 mb